sensor_id;sensor_type;location;lat;lon;timestamp;temperature;humidity
31991;DHT22;18508;49.386;8.370;2022-07-18T00:02:02;18.00;99.90
31991;DHT22;18508;49.386;8.370;2022-07-18T00:04:30;17.60;99.90
31991;DHT22;18508;49.386;8.370;2022-07-18T00:06:59;17.90;99.90
31991;DHT22;18508;49.386;8.370;2022-07-18T00:09:27;17.90;99.90
31991;DHT22;18508;49.386;8.370;2022-07-18T00:12:02;17.60;99.90
31991;DHT22;18508;49.386;8.370;2022-07-18T00:14:30;17.60;99.90
31991;DHT22;18508;49.386;8.370;2022-07-18T00:16:58;17.80;99.90
31991;DHT22;18508;49.386;8.370;2022-07-18T00:19:28;17.70;99.90
31991;DHT22;18508;49.386;8.370;2022-07-18T00:21:56;17.70;99.90
31991;DHT22;18508;49.386;8.370;2022-07-18T00:24:24;17.70;99.90
31991;DHT22;18508;49.386;8.370;2022-07-18T00:26:52;17.60;99.90
31991;DHT22;18508;49.386;8.370;2022-07-18T00:29:20;17.10;99.90
31991;DHT22;18508;49.386;8.370;2022-07-18T00:31:48;17.50;99.90
31991;DHT22;18508;49.386;8.370;2022-07-18T00:34:16;17.50;99.90
31991;DHT22;18508;49.386;8.370;2022-07-18T00:36:46;17.50;99.90
31991;DHT22;18508;49.386;8.370;2022-07-18T00:39:14;17.50;99.90
31991;DHT22;18508;49.386;8.370;2022-07-18T00:41:46;17.40;99.90
31991;DHT22;18508;49.386;8.370;2022-07-18T00:44:18;17.60;99.90
31991;DHT22;18508;49.386;8.370;2022-07-18T00:46:47;17.30;99.90
31991;DHT22;18508;49.386;8.370;2022-07-18T00:49:16;17.30;99.90
31991;DHT22;18508;49.386;8.370;2022-07-18T00:51:46;17.20;99.90
31991;DHT22;18508;49.386;8.370;2022-07-18T00:54:14;17.30;1.00
31991;DHT22;18508;49.386;8.370;2022-07-18T00:56:44;17.10;1.00
31991;DHT22;18508;49.386;8.370;2022-07-18T00:59:12;17.10;1.00
31991;DHT22;18508;49.386;8.370;2022-07-18T01:01:41;17.10;1.00
31991;DHT22;18508;49.386;8.370;2022-07-18T01:04:17;17.10;1.00
31991;DHT22;18508;49.386;8.370;2022-07-18T01:06:47;17.10;1.00
31991;DHT22;18508;49.386;8.370;2022-07-18T01:09:16;17.00;1.00
31991;DHT22;18508;49.386;8.370;2022-07-18T01:11:47;17.00;1.00
31991;DHT22;18508;49.386;8.370;2022-07-18T01:14:15;17.10;1.00
31991;DHT22;18508;49.386;8.370;2022-07-18T01:16:43;16.90;1.00
31991;DHT22;18508;49.386;8.370;2022-07-18T01:19:11;16.80;1.00
31991;DHT22;18508;49.386;8.370;2022-07-18T01:21:41;16.80;1.00
31991;DHT22;18508;49.386;8.370;2022-07-18T01:24:09;16.70;1.00
31991;DHT22;18508;49.386;8.370;2022-07-18T01:26:37;16.60;1.00
31991;DHT22;18508;49.386;8.370;2022-07-18T01:29:06;16.60;1.00
31991;DHT22;18508;49.386;8.370;2022-07-18T01:31:34;16.60;1.00
31991;DHT22;18508;49.386;8.370;2022-07-18T01:34:02;16.50;1.00
31991;DHT22;18508;49.386;8.370;2022-07-18T01:36:30;16.50;1.00
31991;DHT22;18508;49.386;8.370;2022-07-18T01:39:00;16.40;1.00
31991;DHT22;18508;49.386;8.370;2022-07-18T01:41:28;16.40;1.00
31991;DHT22;18508;49.386;8.370;2022-07-18T01:43:56;16.40;1.00
31991;DHT22;18508;49.386;8.370;2022-07-18T01:46:24;16.30;1.00
31991;DHT22;18508;49.386;8.370;2022-07-18T01:48:52;16.30;1.00
31991;DHT22;18508;49.386;8.370;2022-07-18T01:51:20;16.30;1.00
31991;DHT22;18508;49.386;8.370;2022-07-18T01:53:54;16.30;1.00
31991;DHT22;18508;49.386;8.370;2022-07-18T01:56:26;16.30;1.00
31991;DHT22;18508;49.386;8.370;2022-07-18T01:58:54;16.30;1.00
31991;DHT22;18508;49.386;8.370;2022-07-18T02:01:23;16.20;1.00
31991;DHT22;18508;49.386;8.370;2022-07-18T02:03:51;16.20;1.00
31991;DHT22;18508;49.386;8.370;2022-07-18T02:06:19;16.10;1.00
31991;DHT22;18508;49.386;8.370;2022-07-18T02:08:47;16.10;1.00
31991;DHT22;18508;49.386;8.370;2022-07-18T02:11:14;16.10;1.00
31991;DHT22;18508;49.386;8.370;2022-07-18T02:13:44;16.00;1.00
31991;DHT22;18508;49.386;8.370;2022-07-18T02:16:12;16.00;1.00
31991;DHT22;18508;49.386;8.370;2022-07-18T02:18:40;16.00;1.00
31991;DHT22;18508;49.386;8.370;2022-07-18T02:21:09;16.00;1.00
31991;DHT22;18508;49.386;8.370;2022-07-18T02:27:25;15.90;1.00
31991;DHT22;18508;49.386;8.370;2022-07-18T02:29:54;15.80;1.00
31991;DHT22;18508;49.386;8.370;2022-07-18T02:32:22;15.80;1.00
31991;DHT22;18508;49.386;8.370;2022-07-18T02:34:50;15.80;9.60
31991;DHT22;18508;49.386;8.370;2022-07-18T02:37:18;15.70;1.00
31991;DHT22;18508;49.386;8.370;2022-07-18T02:39:46;15.70;1.00
31991;DHT22;18508;49.386;8.370;2022-07-18T02:42:14;15.70;1.00
31991;DHT22;18508;49.386;8.370;2022-07-18T02:44:42;15.70;1.00
31991;DHT22;18508;49.386;8.370;2022-07-18T02:47:11;15.70;1.00
31991;DHT22;18508;49.386;8.370;2022-07-18T02:49:39;15.70;5.70
31991;DHT22;18508;49.386;8.370;2022-07-18T02:52:08;15.70;1.20
31991;DHT22;18508;49.386;8.370;2022-07-18T02:54:37;15.70;1.00
31991;DHT22;18508;49.386;8.370;2022-07-18T02:57:06;15.70;1.00
31991;DHT22;18508;49.386;8.370;2022-07-18T02:59:34;15.70;1.00
31991;DHT22;18508;49.386;8.370;2022-07-18T03:02:02;15.60;1.00
31991;DHT22;18508;49.386;8.370;2022-07-18T03:04:32;15.80;1.00
31991;DHT22;18508;49.386;8.370;2022-07-18T03:07:01;15.50;1.00
31991;DHT22;18508;49.386;8.370;2022-07-18T03:12:05;15.30;6.20
31991;DHT22;18508;49.386;8.370;2022-07-18T03:14:33;15.40;1.00
31991;DHT22;18508;49.386;8.370;2022-07-18T03:19:33;15.10;1.00
31991;DHT22;18508;49.386;8.370;2022-07-18T03:22:05;15.10;1.00
31991;DHT22;18508;49.386;8.370;2022-07-18T03:24:39;15.30;1.00
31991;DHT22;18508;49.386;8.370;2022-07-18T03:27:10;15.10;1.00
31991;DHT22;18508;49.386;8.370;2022-07-18T03:29:40;15.10;1.00
31991;DHT22;18508;49.386;8.370;2022-07-18T03:34:43;15.00;1.00
31991;DHT22;18508;49.386;8.370;2022-07-18T03:42:12;15.10;4.70
31991;DHT22;18508;49.386;8.370;2022-07-18T03:44:45;14.80;1.00
31991;DHT22;18508;49.386;8.370;2022-07-18T03:47:14;14.70;20.30
31991;DHT22;18508;49.386;8.370;2022-07-18T03:49:44;14.60;21.70
31991;DHT22;18508;49.386;8.370;2022-07-18T03:59:42;14.50;13.30
31991;DHT22;18508;49.386;8.370;2022-07-18T04:07:10;14.50;21.40
31991;DHT22;18508;49.386;8.370;2022-07-18T04:12:10;14.70;15.80
31991;DHT22;18508;49.386;8.370;2022-07-18T04:17:07;14.70;8.70
31991;DHT22;18508;49.386;8.370;2022-07-18T04:19:39;15.10;8.50
31991;DHT22;18508;49.386;8.370;2022-07-18T04:22:12;14.90;10.30
31991;DHT22;18508;49.386;8.370;2022-07-18T04:29:48;15.00;4.80
31991;DHT22;18508;49.386;8.370;2022-07-18T04:37:21;15.40;18.30
31991;DHT22;18508;49.386;8.370;2022-07-18T04:39:54;15.30;19.60
31991;DHT22;18508;49.386;8.370;2022-07-18T04:49:55;15.40;6.40
31991;DHT22;18508;49.386;8.370;2022-07-18T04:52:27;15.50;16.60
31991;DHT22;18508;49.386;8.370;2022-07-18T04:55:02;15.60;1.60
31991;DHT22;18508;49.386;8.370;2022-07-18T04:57:31;15.60;1.00
31991;DHT22;18508;49.386;8.370;2022-07-18T04:59:59;15.80;9.20
31991;DHT22;18508;49.386;8.370;2022-07-18T05:02:27;15.90;20.90
31991;DHT22;18508;49.386;8.370;2022-07-18T05:04:55;15.90;18.30
31991;DHT22;18508;49.386;8.370;2022-07-18T05:07:24;16.00;13.40
31991;DHT22;18508;49.386;8.370;2022-07-18T05:09:52;16.10;1.00
31991;DHT22;18508;49.386;8.370;2022-07-18T05:12:20;16.10;1.00
31991;DHT22;18508;49.386;8.370;2022-07-18T05:14:50;16.20;1.00
31991;DHT22;18508;49.386;8.370;2022-07-18T05:17:28;16.30;1.00
31991;DHT22;18508;49.386;8.370;2022-07-18T05:19:56;16.50;1.00
31991;DHT22;18508;49.386;8.370;2022-07-18T05:22:25;16.60;1.00
31991;DHT22;18508;49.386;8.370;2022-07-18T05:24:53;16.80;1.00
31991;DHT22;18508;49.386;8.370;2022-07-18T05:27:21;17.30;1.00
31991;DHT22;18508;49.386;8.370;2022-07-18T05:29:49;17.20;1.00
31991;DHT22;18508;49.386;8.370;2022-07-18T05:32:17;17.40;1.00
31991;DHT22;18508;49.386;8.370;2022-07-18T05:34:46;17.70;1.00
31991;DHT22;18508;49.386;8.370;2022-07-18T05:37:14;17.80;1.00
31991;DHT22;18508;49.386;8.370;2022-07-18T05:39:44;18.00;1.00
31991;DHT22;18508;49.386;8.370;2022-07-18T05:42:11;18.10;1.00
31991;DHT22;18508;49.386;8.370;2022-07-18T05:44:39;18.20;1.00
31991;DHT22;18508;49.386;8.370;2022-07-18T05:47:08;18.30;1.00
31991;DHT22;18508;49.386;8.370;2022-07-18T05:49:36;18.40;1.00
31991;DHT22;18508;49.386;8.370;2022-07-18T05:52:05;18.60;1.00
31991;DHT22;18508;49.386;8.370;2022-07-18T05:54:33;18.80;1.00
31991;DHT22;18508;49.386;8.370;2022-07-18T05:57:03;18.90;1.00
31991;DHT22;18508;49.386;8.370;2022-07-18T05:59:31;18.90;1.00
31991;DHT22;18508;49.386;8.370;2022-07-18T06:01:59;19.00;1.00
31991;DHT22;18508;49.386;8.370;2022-07-18T06:04:27;19.00;1.00
31991;DHT22;18508;49.386;8.370;2022-07-18T06:06:55;19.20;1.00
31991;DHT22;18508;49.386;8.370;2022-07-18T06:09:23;19.30;1.00
31991;DHT22;18508;49.386;8.370;2022-07-18T06:11:51;19.40;1.00
31991;DHT22;18508;49.386;8.370;2022-07-18T06:14:21;19.90;1.00
31991;DHT22;18508;49.386;8.370;2022-07-18T06:16:50;19.60;1.00
31991;DHT22;18508;49.386;8.370;2022-07-18T06:19:18;19.70;1.00
31991;DHT22;18508;49.386;8.370;2022-07-18T06:21:47;19.80;1.00
31991;DHT22;18508;49.386;8.370;2022-07-18T06:24:15;19.90;1.00
31991;DHT22;18508;49.386;8.370;2022-07-18T06:26:43;20.10;1.00
31991;DHT22;18508;49.386;8.370;2022-07-18T06:29:17;20.10;1.00
31991;DHT22;18508;49.386;8.370;2022-07-18T06:31:46;20.30;1.00
31991;DHT22;18508;49.386;8.370;2022-07-18T06:34:14;20.50;1.00
31991;DHT22;18508;49.386;8.370;2022-07-18T06:36:42;20.60;1.00
31991;DHT22;18508;49.386;8.370;2022-07-18T06:39:10;20.70;1.00
31991;DHT22;18508;49.386;8.370;2022-07-18T06:41:39;20.80;1.00
31991;DHT22;18508;49.386;8.370;2022-07-18T06:44:07;20.90;1.00
31991;DHT22;18508;49.386;8.370;2022-07-18T06:46:35;21.00;1.00
31991;DHT22;18508;49.386;8.370;2022-07-18T06:49:05;21.10;1.00
31991;DHT22;18508;49.386;8.370;2022-07-18T06:51:34;21.30;1.00
31991;DHT22;18508;49.386;8.370;2022-07-18T06:54:02;21.40;1.00
31991;DHT22;18508;49.386;8.370;2022-07-18T06:56:30;21.50;1.00
31991;DHT22;18508;49.386;8.370;2022-07-18T06:58:58;21.60;1.00
31991;DHT22;18508;49.386;8.370;2022-07-18T07:01:26;21.70;1.00
31991;DHT22;18508;49.386;8.370;2022-07-18T07:03:55;21.90;1.00
31991;DHT22;18508;49.386;8.370;2022-07-18T07:06:24;21.90;1.00
31991;DHT22;18508;49.386;8.370;2022-07-18T07:08:52;21.90;1.00
31991;DHT22;18508;49.386;8.370;2022-07-18T07:11:20;22.00;1.00
31991;DHT22;18508;49.386;8.370;2022-07-18T07:13:49;22.10;1.00
31991;DHT22;18508;49.386;8.370;2022-07-18T07:16:17;22.30;1.00
31991;DHT22;18508;49.386;8.370;2022-07-18T07:18:45;22.50;1.00
31991;DHT22;18508;49.386;8.370;2022-07-18T07:21:14;22.50;1.00
31991;DHT22;18508;49.386;8.370;2022-07-18T07:23:47;22.60;1.00
31991;DHT22;18508;49.386;8.370;2022-07-18T07:26:18;22.80;1.00
31991;DHT22;18508;49.386;8.370;2022-07-18T07:28:47;22.90;1.00
31991;DHT22;18508;49.386;8.370;2022-07-18T07:31:15;23.10;1.00
31991;DHT22;18508;49.386;8.370;2022-07-18T07:33:44;23.20;1.00
31991;DHT22;18508;49.386;8.370;2022-07-18T07:36:14;23.30;73.90
31991;DHT22;18508;49.386;8.370;2022-07-18T07:38:42;23.40;1.00
31991;DHT22;18508;49.386;8.370;2022-07-18T07:41:11;23.40;1.00
31991;DHT22;18508;49.386;8.370;2022-07-18T07:43:43;23.70;1.00
31991;DHT22;18508;49.386;8.370;2022-07-18T07:46:14;23.60;1.00
31991;DHT22;18508;49.386;8.370;2022-07-18T07:48:43;23.80;1.00
31991;DHT22;18508;49.386;8.370;2022-07-18T07:51:11;24.30;1.00
31991;DHT22;18508;49.386;8.370;2022-07-18T07:53:42;24.20;1.00
31991;DHT22;18508;49.386;8.370;2022-07-18T07:56:11;24.20;1.00
31991;DHT22;18508;49.386;8.370;2022-07-18T07:58:40;24.40;1.00
31991;DHT22;18508;49.386;8.370;2022-07-18T08:01:11;24.50;1.00
31991;DHT22;18508;49.386;8.370;2022-07-18T08:03:48;24.60;1.00
31991;DHT22;18508;49.386;8.370;2022-07-18T08:06:17;24.70;1.00
31991;DHT22;18508;49.386;8.370;2022-07-18T08:08:45;24.60;1.00
31991;DHT22;18508;49.386;8.370;2022-07-18T08:11:15;24.60;1.00
31991;DHT22;18508;49.386;8.370;2022-07-18T08:13:43;24.70;1.00
31991;DHT22;18508;49.386;8.370;2022-07-18T08:16:11;24.90;1.00
31991;DHT22;18508;49.386;8.370;2022-07-18T08:18:42;25.10;1.00
31991;DHT22;18508;49.386;8.370;2022-07-18T08:21:10;25.10;1.00
31991;DHT22;18508;49.386;8.370;2022-07-18T08:23:39;25.20;1.00
31991;DHT22;18508;49.386;8.370;2022-07-18T08:26:09;25.30;1.00
31991;DHT22;18508;49.386;8.370;2022-07-18T08:28:39;25.50;1.00
31991;DHT22;18508;49.386;8.370;2022-07-18T08:31:07;25.50;1.00
31991;DHT22;18508;49.386;8.370;2022-07-18T08:33:42;25.50;1.00
31991;DHT22;18508;49.386;8.370;2022-07-18T08:36:10;25.60;1.00
31991;DHT22;18508;49.386;8.370;2022-07-18T08:38:39;25.70;1.00
31991;DHT22;18508;49.386;8.370;2022-07-18T08:41:08;25.70;1.00
31991;DHT22;18508;49.386;8.370;2022-07-18T08:43:39;25.90;1.00
31991;DHT22;18508;49.386;8.370;2022-07-18T08:46:07;26.00;1.00
31991;DHT22;18508;49.386;8.370;2022-07-18T08:48:36;26.10;1.00
31991;DHT22;18508;49.386;8.370;2022-07-18T08:51:05;26.20;1.00
31991;DHT22;18508;49.386;8.370;2022-07-18T08:53:35;26.40;1.00
31991;DHT22;18508;49.386;8.370;2022-07-18T08:56:05;26.50;1.00
31991;DHT22;18508;49.386;8.370;2022-07-18T08:58:33;26.70;1.00
31991;DHT22;18508;49.386;8.370;2022-07-18T09:01:13;26.60;1.00
31991;DHT22;18508;49.386;8.370;2022-07-18T09:03:41;26.60;1.00
31991;DHT22;18508;49.386;8.370;2022-07-18T09:06:11;26.50;1.00
31991;DHT22;18508;49.386;8.370;2022-07-18T09:08:40;26.70;1.00
31991;DHT22;18508;49.386;8.370;2022-07-18T09:11:24;26.80;1.00
31991;DHT22;18508;49.386;8.370;2022-07-18T09:14:33;26.90;1.00
31991;DHT22;18508;49.386;8.370;2022-07-18T09:17:08;27.10;1.00
31991;DHT22;18508;49.386;8.370;2022-07-18T09:19:37;27.00;1.00
31991;DHT22;18508;49.386;8.370;2022-07-18T09:22:15;27.20;1.00
31991;DHT22;18508;49.386;8.370;2022-07-18T09:25:05;27.40;1.00
31991;DHT22;18508;49.386;8.370;2022-07-18T09:27:37;27.50;1.00
31991;DHT22;18508;49.386;8.370;2022-07-18T09:30:23;27.70;1.00
31991;DHT22;18508;49.386;8.370;2022-07-18T09:33:03;27.90;1.00
31991;DHT22;18508;49.386;8.370;2022-07-18T09:35:34;27.90;1.00
31991;DHT22;18508;49.386;8.370;2022-07-18T09:38:05;28.00;1.00
31991;DHT22;18508;49.386;8.370;2022-07-18T09:40:35;28.00;1.00
31991;DHT22;18508;49.386;8.370;2022-07-18T09:43:05;28.00;1.00
31991;DHT22;18508;49.386;8.370;2022-07-18T09:45:35;28.20;1.00
31991;DHT22;18508;49.386;8.370;2022-07-18T09:50:36;28.20;1.00
31991;DHT22;18508;49.386;8.370;2022-07-18T09:53:10;28.30;1.00
31991;DHT22;18508;49.386;8.370;2022-07-18T09:56:00;28.40;1.00
31991;DHT22;18508;49.386;8.370;2022-07-18T09:58:30;28.50;1.00
31991;DHT22;18508;49.386;8.370;2022-07-18T10:01:00;28.50;1.00
31991;DHT22;18508;49.386;8.370;2022-07-18T10:03:30;28.60;1.00
31991;DHT22;18508;49.386;8.370;2022-07-18T10:06:00;28.70;1.00
31991;DHT22;18508;49.386;8.370;2022-07-18T10:08:30;28.80;1.00
31991;DHT22;18508;49.386;8.370;2022-07-18T10:10:59;28.90;1.00
31991;DHT22;18508;49.386;8.370;2022-07-18T10:13:29;29.00;1.00
31991;DHT22;18508;49.386;8.370;2022-07-18T10:15:58;29.10;1.00
31991;DHT22;18508;49.386;8.370;2022-07-18T10:18:28;29.20;1.00
31991;DHT22;18508;49.386;8.370;2022-07-18T10:20:59;29.40;1.00
31991;DHT22;18508;49.386;8.370;2022-07-18T10:23:33;29.50;1.00
31991;DHT22;18508;49.386;8.370;2022-07-18T10:26:12;29.60;1.00
31991;DHT22;18508;49.386;8.370;2022-07-18T10:32:03;29.60;1.00
31991;DHT22;18508;49.386;8.370;2022-07-18T10:34:34;29.60;1.00
31991;DHT22;18508;49.386;8.370;2022-07-18T10:37:11;29.60;1.00
31991;DHT22;18508;49.386;8.370;2022-07-18T10:39:41;29.70;1.00
31991;DHT22;18508;49.386;8.370;2022-07-18T10:42:14;29.70;1.00
31991;DHT22;18508;49.386;8.370;2022-07-18T10:47:17;30.00;1.00
31991;DHT22;18508;49.386;8.370;2022-07-18T10:50:09;30.30;1.00
31991;DHT22;18508;49.386;8.370;2022-07-18T10:53:00;30.40;1.00
31991;DHT22;18508;49.386;8.370;2022-07-18T10:55:36;30.50;1.00
31991;DHT22;18508;49.386;8.370;2022-07-18T10:58:20;30.60;1.00
31991;DHT22;18508;49.386;8.370;2022-07-18T11:01:05;30.70;1.00
31991;DHT22;18508;49.386;8.370;2022-07-18T11:03:37;30.70;1.00
31991;DHT22;18508;49.386;8.370;2022-07-18T11:06:08;30.70;1.00
31991;DHT22;18508;49.386;8.370;2022-07-18T11:08:38;30.70;1.00
31991;DHT22;18508;49.386;8.370;2022-07-18T11:11:11;31.00;1.00
31991;DHT22;18508;49.386;8.370;2022-07-18T11:13:45;31.10;1.00
31991;DHT22;18508;49.386;8.370;2022-07-18T11:16:24;31.20;1.00
31991;DHT22;18508;49.386;8.370;2022-07-18T11:19:25;31.30;1.00
31991;DHT22;18508;49.386;8.370;2022-07-18T11:21:58;31.40;1.00
31991;DHT22;18508;49.386;8.370;2022-07-18T11:24:30;31.70;1.00
31991;DHT22;18508;49.386;8.370;2022-07-18T11:26:58;31.70;1.00
31991;DHT22;18508;49.386;8.370;2022-07-18T11:29:27;31.80;1.00
31991;DHT22;18508;49.386;8.370;2022-07-18T11:31:57;31.80;1.00
31991;DHT22;18508;49.386;8.370;2022-07-18T11:34:26;32.20;1.00
31991;DHT22;18508;49.386;8.370;2022-07-18T11:37:14;32.10;1.00
31991;DHT22;18508;49.386;8.370;2022-07-18T11:39:44;32.30;1.00
31991;DHT22;18508;49.386;8.370;2022-07-18T11:42:12;32.40;1.00
31991;DHT22;18508;49.386;8.370;2022-07-18T11:44:42;32.30;1.00
31991;DHT22;18508;49.386;8.370;2022-07-18T11:47:11;32.30;1.00
31991;DHT22;18508;49.386;8.370;2022-07-18T11:49:40;32.30;1.00
31991;DHT22;18508;49.386;8.370;2022-07-18T11:52:24;32.20;1.00
31991;DHT22;18508;49.386;8.370;2022-07-18T11:55:00;32.20;1.00
31991;DHT22;18508;49.386;8.370;2022-07-18T11:57:31;32.40;1.00
31991;DHT22;18508;49.386;8.370;2022-07-18T12:00:00;32.50;1.00
31991;DHT22;18508;49.386;8.370;2022-07-18T12:03:06;32.60;1.00
31991;DHT22;18508;49.386;8.370;2022-07-18T12:05:42;32.70;1.00
31991;DHT22;18508;49.386;8.370;2022-07-18T12:08:34;32.90;1.00
31991;DHT22;18508;49.386;8.370;2022-07-18T12:11:26;33.00;1.00
31991;DHT22;18508;49.386;8.370;2022-07-18T12:13:57;33.00;1.00
31991;DHT22;18508;49.386;8.370;2022-07-18T12:16:35;33.20;1.00
31991;DHT22;18508;49.386;8.370;2022-07-18T12:19:05;33.50;1.00
31991;DHT22;18508;49.386;8.370;2022-07-18T12:21:48;33.60;1.00
31991;DHT22;18508;49.386;8.370;2022-07-18T12:24:29;33.50;1.00
31991;DHT22;18508;49.386;8.370;2022-07-18T12:27:18;33.70;1.00
31991;DHT22;18508;49.386;8.370;2022-07-18T12:30:09;33.80;1.00
31991;DHT22;18508;49.386;8.370;2022-07-18T12:32:56;33.70;1.00
31991;DHT22;18508;49.386;8.370;2022-07-18T12:35:27;33.80;1.00
31991;DHT22;18508;49.386;8.370;2022-07-18T12:37:58;33.90;1.00
31991;DHT22;18508;49.386;8.370;2022-07-18T12:40:39;33.80;1.00
31991;DHT22;18508;49.386;8.370;2022-07-18T12:43:10;33.80;1.00
31991;DHT22;18508;49.386;8.370;2022-07-18T12:45:40;33.90;1.00
31991;DHT22;18508;49.386;8.370;2022-07-18T12:48:11;34.30;1.00
31991;DHT22;18508;49.386;8.370;2022-07-18T12:50:41;34.40;1.00
31991;DHT22;18508;49.386;8.370;2022-07-18T12:53:09;34.40;1.00
31991;DHT22;18508;49.386;8.370;2022-07-18T12:55:46;34.50;1.00
31991;DHT22;18508;49.386;8.370;2022-07-18T12:58:16;34.50;1.00
31991;DHT22;18508;49.386;8.370;2022-07-18T13:00:50;34.60;1.00
31991;DHT22;18508;49.386;8.370;2022-07-18T13:03:32;34.90;1.00
31991;DHT22;18508;49.386;8.370;2022-07-18T13:06:00;34.90;1.00
31991;DHT22;18508;49.386;8.370;2022-07-18T13:08:29;35.10;1.00
31991;DHT22;18508;49.386;8.370;2022-07-18T13:10:58;35.10;1.00
31991;DHT22;18508;49.386;8.370;2022-07-18T13:13:28;35.20;1.00
31991;DHT22;18508;49.386;8.370;2022-07-18T13:15:56;35.10;1.00
31991;DHT22;18508;49.386;8.370;2022-07-18T13:18:24;35.30;1.00
31991;DHT22;18508;49.386;8.370;2022-07-18T13:20:52;35.40;1.00
31991;DHT22;18508;49.386;8.370;2022-07-18T13:23:20;35.60;1.00
31991;DHT22;18508;49.386;8.370;2022-07-18T13:25:48;35.30;1.00
31991;DHT22;18508;49.386;8.370;2022-07-18T13:28:16;35.20;1.00
31991;DHT22;18508;49.386;8.370;2022-07-18T13:30:46;35.20;1.00
31991;DHT22;18508;49.386;8.370;2022-07-18T13:33:14;35.20;1.00
31991;DHT22;18508;49.386;8.370;2022-07-18T13:35:42;35.40;1.00
31991;DHT22;18508;49.386;8.370;2022-07-18T13:38:10;35.70;1.00
31991;DHT22;18508;49.386;8.370;2022-07-18T13:40:38;36.40;1.00
31991;DHT22;18508;49.386;8.370;2022-07-18T13:43:06;36.60;1.00
31991;DHT22;18508;49.386;8.370;2022-07-18T13:45:34;37.10;1.00
31991;DHT22;18508;49.386;8.370;2022-07-18T13:48:04;37.50;1.00
31991;DHT22;18508;49.386;8.370;2022-07-18T13:50:32;38.50;1.00
31991;DHT22;18508;49.386;8.370;2022-07-18T13:53:00;38.70;1.00
31991;DHT22;18508;49.386;8.370;2022-07-18T13:55:29;39.00;1.00
31991;DHT22;18508;49.386;8.370;2022-07-18T13:57:57;39.20;1.00
31991;DHT22;18508;49.386;8.370;2022-07-18T14:00:27;39.20;1.00
31991;DHT22;18508;49.386;8.370;2022-07-18T14:02:56;39.60;1.00
31991;DHT22;18508;49.386;8.370;2022-07-18T14:05:25;40.20;1.00
31991;DHT22;18508;49.386;8.370;2022-07-18T14:07:54;40.20;1.00
31991;DHT22;18508;49.386;8.370;2022-07-18T14:10:22;40.30;1.00
31991;DHT22;18508;49.386;8.370;2022-07-18T14:12:50;40.30;1.00
31991;DHT22;18508;49.386;8.370;2022-07-18T14:15:18;40.70;1.00
31991;DHT22;18508;49.386;8.370;2022-07-18T14:17:46;41.40;1.00
31991;DHT22;18508;49.386;8.370;2022-07-18T14:20:14;41.10;1.00
31991;DHT22;18508;49.386;8.370;2022-07-18T14:22:45;41.30;1.00
31991;DHT22;18508;49.386;8.370;2022-07-18T14:25:15;41.40;1.00
31991;DHT22;18508;49.386;8.370;2022-07-18T14:27:44;41.20;1.00
31991;DHT22;18508;49.386;8.370;2022-07-18T14:30:14;41.20;1.00
31991;DHT22;18508;49.386;8.370;2022-07-18T14:32:43;40.10;1.00
31991;DHT22;18508;49.386;8.370;2022-07-18T14:35:11;40.40;1.00
31991;DHT22;18508;49.386;8.370;2022-07-18T14:37:39;40.90;1.00
31991;DHT22;18508;49.386;8.370;2022-07-18T14:40:10;40.80;1.00
31991;DHT22;18508;49.386;8.370;2022-07-18T14:42:39;41.00;1.00
31991;DHT22;18508;49.386;8.370;2022-07-18T14:45:08;41.30;1.00
31991;DHT22;18508;49.386;8.370;2022-07-18T14:47:36;41.00;1.00
31991;DHT22;18508;49.386;8.370;2022-07-18T14:50:06;40.80;1.00
31991;DHT22;18508;49.386;8.370;2022-07-18T14:52:37;41.20;1.00
31991;DHT22;18508;49.386;8.370;2022-07-18T14:55:07;41.00;1.00
31991;DHT22;18508;49.386;8.370;2022-07-18T14:57:37;41.40;1.00
31991;DHT22;18508;49.386;8.370;2022-07-18T15:00:07;40.80;1.00
31991;DHT22;18508;49.386;8.370;2022-07-18T15:02:35;41.10;1.00
31991;DHT22;18508;49.386;8.370;2022-07-18T15:05:04;41.10;1.00
31991;DHT22;18508;49.386;8.370;2022-07-18T15:07:33;41.20;1.00
31991;DHT22;18508;49.386;8.370;2022-07-18T15:10:02;41.30;1.00
31991;DHT22;18508;49.386;8.370;2022-07-18T15:12:30;41.80;1.00
31991;DHT22;18508;49.386;8.370;2022-07-18T15:15:00;42.10;1.00
31991;DHT22;18508;49.386;8.370;2022-07-18T15:17:29;42.30;1.00
31991;DHT22;18508;49.386;8.370;2022-07-18T15:19:57;42.30;1.00
31991;DHT22;18508;49.386;8.370;2022-07-18T15:22:25;42.50;1.00
31991;DHT22;18508;49.386;8.370;2022-07-18T15:24:56;41.20;1.00
31991;DHT22;18508;49.386;8.370;2022-07-18T15:27:24;41.50;1.00
31991;DHT22;18508;49.386;8.370;2022-07-18T15:29:52;42.00;1.00
31991;DHT22;18508;49.386;8.370;2022-07-18T15:32:21;41.70;1.00
31991;DHT22;18508;49.386;8.370;2022-07-18T15:34:49;42.00;1.00
31991;DHT22;18508;49.386;8.370;2022-07-18T15:37:17;41.40;1.00
31991;DHT22;18508;49.386;8.370;2022-07-18T15:39:46;41.30;1.00
31991;DHT22;18508;49.386;8.370;2022-07-18T15:42:14;40.90;1.00
31991;DHT22;18508;49.386;8.370;2022-07-18T15:44:42;41.20;1.00
31991;DHT22;18508;49.386;8.370;2022-07-18T15:47:11;41.60;1.00
31991;DHT22;18508;49.386;8.370;2022-07-18T15:49:41;41.10;1.00
31991;DHT22;18508;49.386;8.370;2022-07-18T15:52:09;41.00;1.00
31991;DHT22;18508;49.386;8.370;2022-07-18T15:54:38;41.30;1.00
31991;DHT22;18508;49.386;8.370;2022-07-18T15:57:06;41.50;1.00
31991;DHT22;18508;49.386;8.370;2022-07-18T15:59:35;41.60;1.00
31991;DHT22;18508;49.386;8.370;2022-07-18T16:02:03;41.80;1.00
31991;DHT22;18508;49.386;8.370;2022-07-18T16:04:34;41.50;1.00
31991;DHT22;18508;49.386;8.370;2022-07-18T16:07:05;41.50;1.00
31991;DHT22;18508;49.386;8.370;2022-07-18T16:09:34;41.50;1.00
31991;DHT22;18508;49.386;8.370;2022-07-18T16:12:05;42.10;1.00
31991;DHT22;18508;49.386;8.370;2022-07-18T16:14:34;42.30;1.00
31991;DHT22;18508;49.386;8.370;2022-07-18T16:17:04;42.20;1.00
31991;DHT22;18508;49.386;8.370;2022-07-18T16:19:32;42.80;1.00
31991;DHT22;18508;49.386;8.370;2022-07-18T16:22:01;42.40;1.00
31991;DHT22;18508;49.386;8.370;2022-07-18T16:24:31;41.70;1.00
31991;DHT22;18508;49.386;8.370;2022-07-18T16:27:00;41.20;1.00
31991;DHT22;18508;49.386;8.370;2022-07-18T16:29:28;41.30;1.00
31991;DHT22;18508;49.386;8.370;2022-07-18T16:31:56;41.10;1.00
31991;DHT22;18508;49.386;8.370;2022-07-18T16:34:24;41.70;1.00
31991;DHT22;18508;49.386;8.370;2022-07-18T16:36:52;42.20;1.00
31991;DHT22;18508;49.386;8.370;2022-07-18T16:39:20;42.00;1.00
31991;DHT22;18508;49.386;8.370;2022-07-18T16:41:50;42.10;1.00
31991;DHT22;18508;49.386;8.370;2022-07-18T16:44:27;42.10;1.00
31991;DHT22;18508;49.386;8.370;2022-07-18T16:46:55;42.60;1.00
31991;DHT22;18508;49.386;8.370;2022-07-18T16:49:24;42.50;1.00
31991;DHT22;18508;49.386;8.370;2022-07-18T16:51:52;42.90;1.00
31991;DHT22;18508;49.386;8.370;2022-07-18T16:54:21;42.10;1.00
31991;DHT22;18508;49.386;8.370;2022-07-18T16:56:50;42.50;1.00
31991;DHT22;18508;49.386;8.370;2022-07-18T16:59:19;42.60;1.00
31991;DHT22;18508;49.386;8.370;2022-07-18T17:01:48;42.90;1.00
31991;DHT22;18508;49.386;8.370;2022-07-18T17:04:17;42.70;1.00
31991;DHT22;18508;49.386;8.370;2022-07-18T17:06:45;42.70;1.00